Englesville, Pennsylvania
Current Conditions -  °F | °C
As of 6:54 PM on Friday 28 Nov 2014 (Local Time) from KPTW Reporting Station
Clear Clear  
Wind Chill: 26°   Ceiling: Unl
Heat Index: 26°   Visibility: 10mi
Dew Point: 17°   Wind: 3mph
Humidity: 69%   Direction: 300°WNW
Pressure: 30.26"   Gusts: NA
Location:  40.3481°N, 75.6818°W
Report Text: KPTW 282354Z AUTO 30003KT 10SM CLR M03/M08 A3026 RMK AO2 SLP249 T10331083 10017 21033 53008
Loading
Personal Weather Stations






























Interactive Weather Map New forecast layout! Learn more

10-Day Weather Forecast

Advertisements
Track Severe Weather on mobile